Time;durP1;ratioP1;P1;durP2;ratioP2;P2;SDS_P1;SDS_P2;PMS_P1;PMS_P2;Temp;Humidity;BMP_temperature;BMP_pressure;BME280_temperature;BME280_humidity;BME280_pressure;Samples;Min_cycle;Max_cycle;Signal;HPM_P1;HPM_P2
2023/03/17 00:01:37;;;;;;;5.70;2.50;;;9.60;99.90;;;;;;5051898;28;20452;-77
2023/03/17 00:04:03;;;;;;;2.93;2.27;;;9.60;99.90;;;;;;5049838;28;20197;-77
2023/03/17 00:06:30;;;;;;;2.70;2.27;;;9.60;99.90;;;;;;5050774;28;20193;-76
2023/03/17 00:08:57;;;;;;;3.33;2.43;;;9.60;99.90;;;;;;5049026;28;20774;-77
2023/03/17 00:11:24;;;;;;;3.13;2.67;;;9.60;99.90;;;;;;5050354;28;20420;-77
2023/03/17 00:13:50;;;;;;;3.50;2.47;;;9.70;99.90;;;;;;5050291;28;20455;-76
2023/03/17 00:16:26;;;;;;;4.20;2.67;;;9.70;99.90;;;;;;5048930;28;20749;-76
2023/03/17 00:18:53;;;;;;;3.93;2.50;;;9.80;99.90;;;;;;5048809;28;20220;-76
2023/03/17 00:21:31;;;;;;;2.37;2.17;;;9.70;99.90;;;;;;5048614;28;20506;-77
2023/03/17 00:23:57;;;;;;;5.13;2.63;;;9.70;99.90;;;;;;5049837;28;20519;-76
2023/03/17 00:26:23;;;;;;;4.00;2.57;;;9.70;99.90;;;;;;5049941;28;20420;-77
2023/03/17 00:28:50;;;;;;;3.80;2.20;;;9.80;99.90;;;;;;5048737;28;20431;-77
2023/03/17 00:31:24;;;;;;;2.63;2.40;;;9.80;99.90;;;;;;5048881;28;20949;-77
2023/03/17 00:33:51;;;;;;;3.03;2.73;;;9.80;99.90;;;;;;5049799;28;20442;-76
2023/03/17 00:36:28;;;;;;;3.43;2.63;;;9.80;99.90;;;;;;5049972;28;20801;-77
2023/03/17 00:38:54;;;;;;;2.93;1.90;;;9.80;99.90;;;;;;5044139;28;21063;-77
2023/03/17 00:41:21;;;;;;;2.77;2.57;;;9.80;99.90;;;;;;5048113;28;20832;-77
2023/03/17 00:43:47;;;;;;;2.57;2.37;;;9.80;99.90;;;;;;5048010;28;20462;-77
2023/03/17 00:46:16;;;;;;;2.40;2.20;;;9.80;99.90;;;;;;5050028;28;20413;-76
2023/03/17 00:48:43;;;;;;;6.10;2.37;;;9.80;99.90;;;;;;5050072;28;20741;-77
2023/03/17 00:51:09;;;;;;;3.43;2.50;;;9.80;99.90;;;;;;5050576;28;20408;-78
2023/03/17 00:53:35;;;;;;;3.07;2.33;;;9.80;99.90;;;;;;5048953;28;20964;-77
2023/03/17 00:56:01;;;;;;;3.20;2.53;;;9.70;99.90;;;;;;5049197;28;20174;-77
2023/03/17 00:58:32;;;;;;;2.63;2.40;;;9.70;99.90;;;;;;5047634;28;20471;-76
2023/03/17 01:00:59;;;;;;;2.60;2.13;;;9.80;99.90;;;;;;5047707;28;20408;-77
2023/03/17 01:03:26;;;;;;;3.63;2.90;;;9.70;99.90;;;;;;5048273;28;20425;-77
2023/03/17 01:05:55;;;;;;;3.03;2.50;;;9.80;99.90;;;;;;5048765;28;20446;-77
2023/03/17 01:08:22;;;;;;;2.90;2.23;;;9.70;99.90;;;;;;5047758;28;20592;-77
2023/03/17 01:10:48;;;;;;;2.73;2.13;;;9.80;99.80;;;;;;5049154;28;20768;-77
2023/03/17 01:13:14;;;;;;;2.77;2.37;;;9.80;99.90;;;;;;5048688;28;20452;-77
2023/03/17 01:15:50;;;;;;;3.00;2.20;;;9.80;99.90;;;;;;5049683;28;20431;-77
2023/03/17 01:18:19;;;;;;;4.77;2.73;;;9.80;99.90;;;;;;5049551;28;20213;-77
2023/03/17 01:20:45;;;;;;;2.80;2.53;;;9.80;99.70;;;;;;5049424;28;20459;-77
2023/03/17 01:23:12;;;;;;;4.33;2.30;;;9.80;99.70;;;;;;5049042;28;21030;-77
2023/03/17 01:25:40;;;;;;;3.33;2.43;;;9.90;99.70;;;;;;5049159;28;20462;-77
2023/03/17 01:28:06;;;;;;;2.90;2.17;;;9.80;99.80;;;;;;5048655;28;20435;-76
2023/03/17 01:30:37;;;;;;;3.00;2.53;;;9.90;99.60;;;;;;5047644;28;20419;-77
2023/03/17 01:33:05;;;;;;;3.53;3.07;;;9.90;99.70;;;;;;5048504;28;20911;-77
2023/03/17 01:35:31;;;;;;;3.87;2.80;;;9.90;99.40;;;;;;5031191;28;20939;-77
2023/03/17 01:37:58;;;;;;;2.47;2.10;;;9.90;99.60;;;;;;5047029;28;20870;-78
2023/03/17 01:40:33;;;;;;;3.73;2.30;;;10.00;99.00;;;;;;5048806;28;20776;-77
2023/03/17 01:43:07;;;;;;;3.10;2.50;;;9.90;99.60;;;;;;5048547;28;20452;-77
2023/03/17 01:46:13;;;;;;;4.60;2.23;;;9.90;99.70;;;;;;5047505;28;20759;-76
2023/03/17 01:49:16;;;;;;;2.47;2.27;;;9.90;99.50;;;;;;5048349;28;20503;-77
2023/03/17 01:51:51;;;;;;;2.20;2.00;;;9.90;99.40;;;;;;5048599;28;20412;-77
2023/03/17 01:54:27;;;;;;;2.50;2.00;;;9.90;99.60;;;;;;5048194;28;20426;-77
2023/03/17 01:57:01;;;;;;;2.57;2.37;;;9.80;99.60;;;;;;5047999;28;20420;-77
2023/03/17 01:59:32;;;;;;;2.70;2.50;;;9.80;99.30;;;;;;5048298;28;20455;-77
2023/03/17 02:02:03;;;;;;;3.20;2.40;;;9.80;99.40;;;;;;5048643;28;20415;-77
2023/03/17 02:04:30;;;;;;;3.17;2.53;;;9.80;99.40;;;;;;5049358;28;20432;-75
2023/03/17 02:06:56;;;;;;;3.30;2.30;;;9.80;99.70;;;;;;5048812;28;20425;-77
2023/03/17 02:09:22;;;;;;;3.47;2.50;;;9.80;99.70;;;;;;5047095;28;20424;-77
2023/03/17 02:11:49;;;;;;;3.00;2.50;;;9.80;99.70;;;;;;5047255;28;20913;-77
2023/03/17 02:14:15;;;;;;;3.87;2.50;;;9.80;99.60;;;;;;5047869;28;20474;-77
2023/03/17 02:16:43;;;;;;;3.30;2.57;;;9.80;99.90;;;;;;5051549;28;20964;-77
2023/03/17 02:19:10;;;;;;;3.53;2.83;;;9.80;99.50;;;;;;5051903;28;20456;-76
2023/03/17 02:21:44;;;;;;;3.10;2.60;;;9.80;99.60;;;;;;5050796;28;20448;-77
2023/03/17 02:24:25;;;;;;;3.30;2.60;;;9.80;99.40;;;;;;5051610;28;20478;-76
2023/03/17 02:26:54;;;;;;;7.97;3.10;;;9.80;99.50;;;;;;5034177;28;20408;-77
2023/03/17 02:29:21;;;;;;;4.20;2.80;;;9.80;99.70;;;;;;5050582;28;20773;-77
2023/03/17 02:31:47;;;;;;;3.63;2.80;;;9.80;99.60;;;;;;5052106;28;20441;-77
2023/03/17 02:34:14;;;;;;;2.47;2.10;;;9.70;99.70;;;;;;5050272;28;20435;-76
2023/03/17 02:36:40;;;;;;;3.40;2.30;;;9.70;99.70;;;;;;5051725;28;20470;-77
2023/03/17 02:39:06;;;;;;;2.83;2.40;;;9.70;99.70;;;;;;5050036;28;20483;-76
2023/03/17 02:41:33;;;;;;;3.67;2.60;;;9.70;99.80;;;;;;5051798;28;20408;-77
2023/03/17 02:43:59;;;;;;;3.00;2.23;;;9.70;99.90;;;;;;5051447;28;20485;-77
2023/03/17 02:46:25;;;;;;;4.47;2.37;;;9.70;99.90;;;;;;5050388;28;20407;-76
2023/03/17 02:48:52;;;;;;;2.67;2.10;;;9.70;99.80;;;;;;5050051;28;20835;-77
2023/03/17 02:51:17;;;;;;;6.70;2.90;;;9.70;99.80;;;;;;5051303;28;20428;-77
2023/03/17 02:53:43;;;;;;;2.80;2.37;;;9.70;99.90;;;;;;5051011;28;20432;-77
2023/03/17 02:56:09;;;;;;;4.73;2.27;;;9.70;99.70;;;;;;5051501;28;20265;-77
2023/03/17 02:58:35;;;;;;;4.67;2.20;;;9.80;99.60;;;;;;5049712;28;20209;-77
2023/03/17 03:01:01;;;;;;;3.33;2.60;;;9.80;99.30;;;;;;5051390;28;20180;-76
2023/03/17 03:03:27;;;;;;;3.80;2.30;;;9.70;99.60;;;;;;5049844;28;21022;-77
2023/03/17 03:05:52;;;;;;;3.00;2.33;;;9.70;99.40;;;;;;5050025;28;20592;-76
2023/03/17 03:08:19;;;;;;;2.90;2.07;;;9.80;99.20;;;;;;5051077;28;20408;-77
2023/03/17 03:10:45;;;;;;;2.57;2.37;;;9.80;99.40;;;;;;5049913;28;20174;-77
2023/03/17 03:13:11;;;;;;;4.37;2.50;;;9.80;99.40;;;;;;5050833;28;20498;-76
2023/03/17 03:15:40;;;;;;;2.83;2.30;;;9.80;99.20;;;;;;5049859;28;20823;-77
2023/03/17 03:18:05;;;;;;;3.00;2.70;;;9.80;99.30;;;;;;5050681;28;20452;-77
2023/03/17 03:20:31;;;;;;;2.93;2.30;;;9.80;99.20;;;;;;5050601;28;20775;-77
2023/03/17 03:22:57;;;;;;;4.00;2.50;;;9.80;99.30;;;;;;5051384;28;20304;-77
2023/03/17 03:25:23;;;;;;;2.50;2.13;;;9.70;99.30;;;;;;5051011;28;20181;-77
2023/03/17 03:27:48;;;;;;;3.13;2.53;;;9.70;99.40;;;;;;5048312;28;20637;-77
2023/03/17 03:30:14;;;;;;;3.20;2.17;;;9.80;99.60;;;;;;5050732;28;20646;-76
2023/03/17 03:32:40;;;;;;;2.27;2.03;;;9.70;99.60;;;;;;5050607;28;20222;-75
2023/03/17 03:35:07;;;;;;;3.27;2.73;;;9.70;99.40;;;;;;5049210;28;20610;-77
2023/03/17 03:37:32;;;;;;;3.30;2.37;;;9.70;99.40;;;;;;5049071;28;20176;-76
2023/03/17 03:39:58;;;;;;;5.03;2.57;;;9.70;99.40;;;;;;5050265;28;20797;-76
2023/03/17 03:42:24;;;;;;;3.40;2.30;;;9.70;99.60;;;;;;5050580;28;20177;-76
2023/03/17 03:44:50;;;;;;;3.60;2.20;;;9.70;99.40;;;;;;5050231;28;20184;-77
2023/03/17 03:47:15;;;;;;;3.00;2.70;;;9.70;99.40;;;;;;5050517;28;20626;-77
2023/03/17 03:49:41;;;;;;;4.33;2.70;;;9.70;99.40;;;;;;5048761;28;20178;-75
2023/03/17 03:52:07;;;;;;;3.20;2.10;;;9.70;99.40;;;;;;5050376;28;20184;-76
2023/03/17 03:54:33;;;;;;;3.20;2.50;;;9.70;99.50;;;;;;5048626;28;20336;-76
2023/03/17 03:56:59;;;;;;;2.60;2.10;;;9.70;99.50;;;;;;5048877;28;20507;-77
2023/03/17 03:59:24;;;;;;;3.20;2.40;;;9.70;99.30;;;;;;5049959;28;20206;-76
2023/03/17 04:01:50;;;;;;;3.83;2.13;;;9.70;99.70;;;;;;5050537;28;20170;-77
2023/03/17 04:04:16;;;;;;;3.23;2.40;;;9.60;99.50;;;;;;5031740;28;20288;-76
2023/03/17 04:06:41;;;;;;;2.60;2.27;;;9.60;99.50;;;;;;5048884;28;20335;-77
2023/03/17 04:09:08;;;;;;;3.83;2.30;;;9.60;99.50;;;;;;5049884;28;20173;-77
2023/03/17 04:11:34;;;;;;;4.30;3.00;;;9.60;99.40;;;;;;5031825;28;20185;-76
2023/03/17 04:13:59;;;;;;;3.20;2.73;;;9.60;99.50;;;;;;5048389;28;20456;-76
2023/03/17 04:16:25;;;;;;;4.63;2.70;;;9.60;99.40;;;;;;5049823;28;20419;-76
2023/03/17 04:18:51;;;;;;;2.60;2.20;;;9.60;99.30;;;;;;5049600;28;20197;-77
2023/03/17 04:21:17;;;;;;;3.73;2.50;;;9.60;99.40;;;;;;5049463;28;20503;-77
2023/03/17 04:23:44;;;;;;;2.30;2.10;;;9.60;99.40;;;;;;5049475;28;20207;-76
2023/03/17 04:26:11;;;;;;;2.93;2.30;;;9.60;99.20;;;;;;5049918;28;20936;-76
2023/03/17 04:28:36;;;;;;;3.13;2.20;;;9.60;99.30;;;;;;5049645;28;20963;-77
2023/03/17 04:31:02;;;;;;;2.73;2.10;;;9.60;99.30;;;;;;5049330;28;20412;-76
2023/03/17 04:33:28;;;;;;;2.77;1.90;;;9.60;99.40;;;;;;5049403;28;20190;-77
2023/03/17 04:35:53;;;;;;;4.00;2.00;;;9.60;99.50;;;;;;5049463;28;20273;-75
2023/03/17 04:38:19;;;;;;;3.73;2.23;;;9.60;99.20;;;;;;5048872;28;20744;-77
2023/03/17 04:40:45;;;;;;;2.83;2.17;;;9.60;99.30;;;;;;5049330;28;20208;-77
2023/03/17 04:43:11;;;;;;;2.57;2.27;;;9.60;99.20;;;;;;5048952;28;20632;-77
2023/03/17 04:45:37;;;;;;;2.57;2.27;;;9.60;99.20;;;;;;5049137;28;20503;-76
2023/03/17 04:48:02;;;;;;;3.17;2.40;;;9.60;99.20;;;;;;5049237;28;20178;-77
2023/03/17 04:50:28;;;;;;;4.27;2.50;;;9.60;99.20;;;;;;5049099;28;20404;-76
2023/03/17 04:52:54;;;;;;;3.17;2.10;;;9.60;99.30;;;;;;5047949;28;20862;-77
2023/03/17 04:55:20;;;;;;;3.03;2.20;;;9.60;99.00;;;;;;5047861;28;20177;-77
2023/03/17 04:57:46;;;;;;;3.53;2.50;;;9.60;99.10;;;;;;5048804;28;20457;-76
2023/03/17 05:00:14;;;;;;;2.53;2.20;;;9.60;99.10;;;;;;5048944;28;20170;-77
2023/03/17 05:02:40;;;;;;;2.47;2.27;;;9.60;99.30;;;;;;5047796;28;20435;-77
2023/03/17 05:05:05;;;;;;;3.40;2.30;;;9.60;99.20;;;;;;5048439;28;20605;-76
2023/03/17 05:07:31;;;;;;;2.60;2.40;;;9.60;99.30;;;;;;5048831;28;20205;-77
2023/03/17 05:09:57;;;;;;;3.27;2.97;;;9.60;99.20;;;;;;5048866;28;20174;-77
2023/03/17 05:12:22;;;;;;;3.33;2.30;;;9.60;99.30;;;;;;5048641;28;20694;-77
2023/03/17 05:14:48;;;;;;;3.57;2.37;;;9.60;99.20;;;;;;5047370;28;20256;-76
2023/03/17 05:17:14;;;;;;;3.33;1.97;;;9.60;99.30;;;;;;5048973;28;20173;-77
2023/03/17 05:19:39;;;;;;;3.03;1.90;;;9.60;99.00;;;;;;5047553;28;20212;-77
2023/03/17 05:22:05;;;;;;;3.20;2.23;;;9.60;99.10;;;;;;5048804;28;20569;-77
2023/03/17 05:24:31;;;;;;;2.10;1.90;;;9.60;99.00;;;;;;5048490;28;20227;-77
2023/03/17 05:26:57;;;;;;;2.30;2.10;;;9.60;99.10;;;;;;5048484;28;20299;-77
2023/03/17 05:29:22;;;;;;;3.23;2.37;;;9.60;99.30;;;;;;5047252;28;20197;-75
2023/03/17 05:31:48;;;;;;;3.03;2.33;;;9.60;99.40;;;;;;5048578;28;20182;-77
2023/03/17 05:34:14;;;;;;;2.27;2.07;;;9.60;99.20;;;;;;5047047;28;20202;-77
2023/03/17 05:36:40;;;;;;;2.87;2.40;;;9.60;99.30;;;;;;5048360;28;20204;-77
2023/03/17 05:39:06;;;;;;;3.13;2.50;;;9.60;99.50;;;;;;5048721;28;20459;-75
2023/03/17 05:41:32;;;;;;;6.03;2.97;;;9.60;99.40;;;;;;5049447;28;20247;-74
2023/03/17 05:43:58;;;;;;;2.73;2.50;;;9.60;99.20;;;;;;5048037;28;20425;-77
2023/03/17 05:46:25;;;;;;;3.43;2.10;;;9.60;99.40;;;;;;5048493;28;20421;-76
2023/03/17 05:48:51;;;;;;;3.87;2.43;;;9.60;99.60;;;;;;5048399;28;20458;-77
2023/03/17 05:51:17;;;;;;;3.10;2.50;;;9.60;99.20;;;;;;5049516;28;20476;-76
2023/03/17 05:53:43;;;;;;;5.33;2.20;;;9.60;99.40;;;;;;5054249;28;20462;-76
2023/03/17 05:56:08;;;;;;;3.30;2.70;;;9.60;99.40;;;;;;5053803;28;20424;-77
2023/03/17 05:58:35;;;;;;;3.10;2.30;;;9.60;99.50;;;;;;5053619;28;20466;-76
2023/03/17 06:01:01;;;;;;;3.00;2.60;;;9.60;99.50;;;;;;5050370;28;20193;-74
2023/03/17 06:03:26;;;;;;;3.20;2.80;;;9.60;99.50;;;;;;5049788;28;20420;-76
2023/03/17 06:05:52;;;;;;;3.83;2.90;;;9.60;99.60;;;;;;5052922;28;20334;-75
2023/03/17 06:08:18;;;;;;;3.30;2.23;;;9.50;99.90;;;;;;5050332;28;20612;-76
2023/03/17 06:10:44;;;;;;;2.67;2.20;;;9.50;99.90;;;;;;5051322;28;20535;-76
2023/03/17 06:13:10;;;;;;;3.67;2.43;;;9.50;99.90;;;;;;5033815;28;20517;-76
2023/03/17 06:15:36;;;;;;;2.50;2.30;;;9.50;99.90;;;;;;5051147;28;20635;-76
2023/03/17 06:18:04;;;;;;;2.80;2.60;;;9.60;99.90;;;;;;5051817;28;20467;-75
2023/03/17 06:20:31;;;;;;;3.93;2.73;;;9.50;99.90;;;;;;5051992;28;20416;-76
2023/03/17 06:22:57;;;;;;;4.10;2.47;;;9.50;99.80;;;;;;5050764;28;20444;-76
2023/03/17 06:25:22;;;;;;;4.30;2.50;;;9.60;99.90;;;;;;5034137;28;20416;-76
2023/03/17 06:27:53;;;;;;;3.00;2.70;;;9.60;99.90;;;;;;5036175;28;20999;-76
2023/03/17 06:30:19;;;;;;;3.13;2.70;;;9.60;99.90;;;;;;5032164;28;20194;-76
2023/03/17 06:32:45;;;;;;;6.10;2.63;;;9.60;99.90;;;;;;5031749;28;20449;-75
2023/03/17 06:35:12;;;;;;;3.43;2.50;;;9.60;99.90;;;;;;5032050;28;20807;-75
2023/03/17 06:37:37;;;;;;;3.00;2.80;;;9.60;99.90;;;;;;5054228;28;20420;-75
2023/03/17 06:40:08;;;;;;;4.30;2.70;;;9.70;99.90;;;;;;5051106;28;20513;-75
2023/03/17 06:42:33;;;;;;;3.90;2.53;;;9.70;99.90;;;;;;5050440;28;20177;-76
2023/03/17 06:44:59;;;;;;;3.00;2.67;;;9.70;99.90;;;;;;5050268;28;20758;-76
2023/03/17 06:47:25;;;;;;;3.33;2.47;;;9.80;99.90;;;;;;5051474;28;20182;-75
2023/03/17 06:49:50;;;;;;;5.73;2.77;;;9.80;99.90;;;;;;5051560;28;20216;-75
2023/03/17 06:52:16;;;;;;;3.20;2.30;;;9.90;99.80;;;;;;5050838;28;20276;-75
2023/03/17 06:54:43;;;;;;;4.20;2.90;;;9.90;99.90;;;;;;5047458;28;20196;-75
2023/03/17 06:57:09;;;;;;;3.80;2.63;;;9.90;99.90;;;;;;5046018;28;20281;-75
2023/03/17 06:59:35;;;;;;;3.80;2.80;;;9.90;99.90;;;;;;5050946;28;20571;-75
2023/03/17 07:02:01;;;;;;;5.80;2.47;;;9.90;99.90;;;;;;5047872;28;20711;-75
2023/03/17 07:04:27;;;;;;;3.80;2.23;;;10.00;99.70;;;;;;5050957;28;20450;-75
2023/03/17 07:06:52;;;;;;;2.43;2.20;;;10.00;99.90;;;;;;5049509;28;20439;-75
2023/03/17 07:09:18;;;;;;;3.00;2.43;;;10.00;99.70;;;;;;5049673;28;20212;-75
2023/03/17 07:11:44;;;;;;;3.37;2.80;;;10.10;99.40;;;;;;5049660;28;20196;-75
2023/03/17 07:14:09;;;;;;;3.23;2.53;;;10.20;99.70;;;;;;5047218;28;20221;-75
2023/03/17 07:16:36;;;;;;;2.60;2.30;;;10.20;99.30;;;;;;5048524;28;20194;-75
2023/03/17 07:19:02;;;;;;;5.87;2.90;;;10.30;99.60;;;;;;5049270;28;20633;-75
2023/03/17 07:21:28;;;;;;;4.57;2.43;;;10.30;99.60;;;;;;5046966;28;20429;-75
2023/03/17 07:23:53;;;;;;;6.33;2.57;;;10.40;99.50;;;;;;5042964;28;20233;-75
2023/03/17 07:26:20;;;;;;;2.73;2.53;;;10.50;99.30;;;;;;5048965;28;20839;-75
2023/03/17 07:28:45;;;;;;;2.80;2.50;;;10.70;99.00;;;;;;5042458;28;20421;-76
2023/03/17 07:31:13;;;;;;;4.43;2.23;;;10.70;98.90;;;;;;5047282;28;20951;-75
2023/03/17 07:33:39;;;;;;;5.37;3.03;;;10.90;99.10;;;;;;5046506;28;20674;-75
2023/03/17 07:36:06;;;;;;;3.67;2.53;;;11.00;98.90;;;;;;5042635;28;20511;-75
2023/03/17 07:38:32;;;;;;;5.17;2.70;;;11.20;98.70;;;;;;5039618;28;20460;-75
2023/03/17 07:40:58;;;;;;;9.83;3.33;;;11.40;98.50;;;;;;5055797;28;20428;-75
2023/03/17 07:43:24;;;;;;;3.40;2.67;;;11.50;98.50;;;;;;5023205;28;20307;-75
2023/03/17 07:45:50;;;;;;;3.00;2.53;;;11.70;98.20;;;;;;5039510;28;20424;-74
2023/03/17 07:48:17;;;;;;;9.00;2.70;;;11.80;98.20;;;;;;5038936;28;20436;-75
2023/03/17 07:50:43;;;;;;;2.77;2.40;;;11.90;97.60;;;;;;5037724;28;20470;-75
2023/03/17 07:53:09;;;;;;;5.33;2.80;;;12.00;97.50;;;;;;5030191;28;20444;-75
2023/03/17 07:55:36;;;;;;;2.83;2.53;;;12.10;97.40;;;;;;5030801;28;20418;-75
2023/03/17 07:58:02;;;;;;;3.40;2.50;;;12.10;97.20;;;;;;5030501;28;20428;-75
2023/03/17 08:00:28;;;;;;;3.60;2.53;;;12.30;97.40;;;;;;5029243;28;20413;-75
2023/03/17 08:02:54;;;;;;;3.07;2.60;;;12.30;97.10;;;;;;5030553;28;20202;-75
2023/03/17 08:05:20;;;;;;;5.77;2.43;;;12.50;97.20;;;;;;5046030;28;20327;-75
2023/03/17 08:07:46;;;;;;;3.27;2.20;;;12.50;96.70;;;;;;5050195;28;20405;-76
2023/03/17 08:10:12;;;;;;;3.10;2.50;;;12.60;96.70;;;;;;5045883;28;20430;-75
2023/03/17 08:12:38;;;;;;;3.37;2.53;;;12.60;96.60;;;;;;5028867;28;20453;-75
2023/03/17 08:15:05;;;;;;;2.17;1.97;;;12.70;96.60;;;;;;5030511;28;20189;-75
2023/03/17 08:17:31;;;;;;;2.73;2.13;;;12.70;96.50;;;;;;5034820;28;20473;-75
2023/03/17 08:19:57;;;;;;;3.40;2.07;;;12.70;96.20;;;;;;5037094;28;20465;-75
2023/03/17 08:22:23;;;;;;;2.70;2.50;;;12.60;96.40;;;;;;5040611;28;20459;-76
2023/03/17 08:24:49;;;;;;;3.53;2.70;;;12.70;96.70;;;;;;5037127;28;20425;-76
2023/03/17 08:27:16;;;;;;;3.20;2.47;;;12.70;96.60;;;;;;5047161;28;20424;-76
2023/03/17 08:29:41;;;;;;;2.43;2.20;;;12.70;96.50;;;;;;5048842;28;20192;-75
2023/03/17 08:32:07;;;;;;;4.53;2.20;;;12.60;96.60;;;;;;5082705;28;20856;-75
2023/03/17 08:34:33;;;;;;;4.10;2.73;;;12.60;96.80;;;;;;5082132;28;20205;-75
2023/03/17 08:37:00;;;;;;;3.93;2.53;;;12.70;97.00;;;;;;5049961;28;20789;-75
2023/03/17 08:39:25;;;;;;;3.27;2.07;;;12.70;97.00;;;;;;5032965;28;20289;-75
2023/03/17 08:41:51;;;;;;;4.73;2.50;;;12.70;96.80;;;;;;5030518;28;20957;-75
2023/03/17 08:44:18;;;;;;;4.47;2.20;;;12.70;96.60;;;;;;5029645;28;20655;-75
2023/03/17 08:46:44;;;;;;;2.67;2.43;;;12.80;96.80;;;;;;5029920;28;20890;-75
2023/03/17 08:49:10;;;;;;;5.47;2.30;;;12.80;96.60;;;;;;5029899;28;20421;-75
2023/03/17 08:51:37;;;;;;;2.37;2.17;;;12.80;96.40;;;;;;5034135;28;20424;-75
2023/03/17 08:54:04;;;;;;;2.60;2.40;;;12.80;96.30;;;;;;5048925;28;20428;-75
2023/03/17 08:56:30;;;;;;;2.60;2.23;;;12.80;96.30;;;;;;5081594;28;20428;-75
2023/03/17 08:58:56;;;;;;;3.17;2.00;;;12.80;96.70;;;;;;5048779;28;20471;-75
2023/03/17 09:01:23;;;;;;;4.90;2.10;;;12.90;96.90;;;;;;5047760;28;20213;-75
2023/03/17 09:03:53;;;;;;;2.43;2.23;;;12.90;96.70;;;;;;5047365;28;20205;-75
2023/03/17 09:06:21;;;;;;;3.43;2.60;;;12.90;96.90;;;;;;5047928;28;20518;-75
2023/03/17 09:08:49;;;;;;;3.57;3.10;;;13.00;96.60;;;;;;5047468;28;20901;-75
2023/03/17 09:11:19;;;;;;;5.00;3.10;;;13.00;96.60;;;;;;5048830;28;20420;-75
2023/03/17 09:13:46;;;;;;;3.90;2.50;;;13.00;96.80;;;;;;5048468;28;20470;-75
2023/03/17 09:16:16;;;;;;;3.90;2.40;;;13.10;96.50;;;;;;5049081;28;20821;-75
2023/03/17 09:18:42;;;;;;;3.93;2.00;;;13.10;96.60;;;;;;5048469;28;20455;-75
2023/03/17 09:21:10;;;;;;;3.00;2.40;;;13.10;96.00;;;;;;5047490;28;20846;-75
2023/03/17 09:23:36;;;;;;;2.90;2.60;;;13.20;96.50;;;;;;5079510;28;20831;-75
2023/03/17 09:26:02;;;;;;;6.10;3.00;;;13.20;96.10;;;;;;5080174;28;20420;-75
2023/03/17 09:28:28;;;;;;;3.80;2.40;;;13.30;96.00;;;;;;5048566;28;20643;-75
2023/03/17 09:31:01;;;;;;;3.07;2.70;;;13.40;96.30;;;;;;5048751;28;21039;-75
2023/03/17 09:33:27;;;;;;;3.07;1.90;;;13.40;96.00;;;;;;5048201;28;20444;-75
2023/03/17 09:35:55;;;;;;;4.47;2.40;;;13.50;96.20;;;;;;5048744;28;20413;-75
2023/03/17 09:38:22;;;;;;;3.00;2.20;;;13.60;96.10;;;;;;5041446;28;20457;-75
2023/03/17 09:40:51;;;;;;;3.93;2.73;;;13.60;95.40;;;;;;5028638;28;20533;-75
2023/03/17 09:43:35;;;;;;;3.13;2.63;;;13.80;95.70;;;;;;5028313;28;20973;-75
2023/03/17 09:46:23;;;;;;;2.97;2.20;;;13.90;95.70;;;;;;5028579;28;20420;-75
2023/03/17 09:49:02;;;;;;;3.07;2.43;;;14.00;95.80;;;;;;5028515;28;20491;-75
2023/03/17 09:51:31;;;;;;;6.47;2.73;;;14.20;95.50;;;;;;5028591;28;20452;-75
2023/03/17 09:54:01;;;;;;;3.77;2.50;;;14.30;95.40;;;;;;5028009;28;20472;-75
2023/03/17 09:56:32;;;;;;;3.00;2.40;;;14.40;95.30;;;;;;5028611;28;20491;-75
2023/03/17 09:59:07;;;;;;;4.53;2.70;;;14.60;94.80;;;;;;5027010;28;20464;-75
2023/03/17 10:01:33;;;;;;;2.63;2.00;;;14.60;95.00;;;;;;5028411;28;20973;-75
2023/03/17 10:04:01;;;;;;;4.10;2.47;;;14.80;94.40;;;;;;5026691;28;20441;-75
2023/03/17 10:06:32;;;;;;;2.90;2.50;;;14.90;94.30;;;;;;5028508;28;20496;-75
2023/03/17 10:09:25;;;;;;;2.93;2.53;;;15.00;94.30;;;;;;5028056;28;20417;-75
2023/03/17 10:12:01;;;;;;;5.43;2.80;;;15.10;93.60;;;;;;5028582;28;20421;-75
2023/03/17 10:14:56;;;;;;;2.90;2.30;;;15.20;93.80;;;;;;5028337;28;20470;-75
2023/03/17 10:17:29;;;;;;;3.23;2.43;;;15.30;94.00;;;;;;5028348;28;20405;-75
2023/03/17 10:19:55;;;;;;;4.60;2.30;;;15.20;92.70;;;;;;5028095;28;20452;-75
2023/03/17 10:22:39;;;;;;;5.73;2.47;;;15.20;92.90;;;;;;5026803;28;20767;-75
2023/03/17 10:25:33;;;;;;;3.40;2.40;;;15.20;93.40;;;;;;5026849;28;20182;-75
2023/03/17 10:28:25;;;;;;;6.60;2.70;;;15.20;93.90;;;;;;5028205;28;20424;-75
2023/03/17 10:30:51;;;;;;;3.33;2.63;;;15.20;93.30;;;;;;5028133;28;20950;-75
2023/03/17 10:33:17;;;;;;;2.93;2.60;;;15.20;93.00;;;;;;5027974;28;20437;-75
2023/03/17 10:35:43;;;;;;;3.40;2.60;;;15.10;93.00;;;;;;5026904;28;20414;-75
2023/03/17 10:38:22;;;;;;;2.60;2.40;;;15.10;93.80;;;;;;5035053;28;20507;-76
2023/03/17 10:40:57;;;;;;;4.57;2.53;;;15.00;94.00;;;;;;5051430;28;20924;-75
2023/03/17 10:43:28;;;;;;;2.80;2.50;;;15.00;93.80;;;;;;5051465;28;20427;-75
2023/03/17 10:46:03;;;;;;;4.47;2.70;;;15.00;93.90;;;;;;5051736;28;20487;-75
2023/03/17 10:48:34;;;;;;;4.03;2.60;;;15.00;94.20;;;;;;5051356;28;20418;-75
2023/03/17 10:51:06;;;;;;;3.70;2.43;;;15.10;94.40;;;;;;5066720;28;20412;-75
2023/03/17 10:53:37;;;;;;;2.57;2.30;;;15.10;95.20;;;;;;5051225;28;20457;-75
2023/03/17 10:56:08;;;;;;;3.70;2.50;;;15.30;94.90;;;;;;5051440;28;20466;-75
2023/03/17 10:58:47;;;;;;;3.17;2.30;;;15.40;95.00;;;;;;5052041;28;20870;-75
2023/03/17 11:01:26;;;;;;;2.70;2.50;;;15.40;93.90;;;;;;5053942;28;20426;-75
2023/03/17 11:03:52;;;;;;;2.80;2.40;;;15.30;93.40;;;;;;5054667;28;20444;-75
2023/03/17 11:06:25;;;;;;;2.77;2.10;;;15.30;93.80;;;;;;5050128;28;20432;-75
2023/03/17 11:08:53;;;;;;;4.43;2.23;;;15.40;94.40;;;;;;5051238;28;20307;-75
2023/03/17 11:11:46;;;;;;;2.60;2.40;;;15.50;94.60;;;;;;5049744;28;20478;-75
2023/03/17 11:14:15;;;;;;;7.33;2.93;;;15.50;94.40;;;;;;5046911;28;20486;-75
2023/03/17 11:17:03;;;;;;;4.23;2.40;;;15.50;94.00;;;;;;5051249;28;20424;-75
2023/03/17 11:19:44;;;;;;;3.17;2.10;;;15.60;94.10;;;;;;5050809;28;20456;-76
2023/03/17 11:22:28;;;;;;;8.00;3.00;;;15.70;93.60;;;;;;5049725;28;20408;-76
2023/03/17 11:25:14;;;;;;;3.50;2.60;;;15.70;93.10;;;;;;5050532;28;20412;-75
2023/03/17 11:27:45;;;;;;;5.33;2.40;;;15.70;93.40;;;;;;5050712;28;20420;-74
2023/03/17 11:30:26;;;;;;;3.20;2.77;;;15.80;93.30;;;;;;5049383;28;20416;-75
2023/03/17 11:33:08;;;;;;;4.13;2.77;;;15.80;93.00;;;;;;5049386;28;20428;-75
2023/03/17 11:36:06;;;;;;;4.87;2.33;;;15.80;93.30;;;;;;5050785;28;20442;-76
2023/03/17 11:38:41;;;;;;;4.60;2.77;;;15.90;93.80;;;;;;5040198;28;20469;-76
2023/03/17 11:41:09;;;;;;;2.80;2.10;;;15.90;94.30;;;;;;5030560;28;20479;-75
2023/03/17 11:44:10;;;;;;;2.70;2.30;;;16.00;94.40;;;;;;5030451;28;20445;-75
2023/03/17 11:46:45;;;;;;;2.90;2.37;;;16.10;94.10;;;;;;5030603;28;20504;-76
2023/03/17 11:49:17;;;;;;;4.07;2.53;;;16.20;93.00;;;;;;5028322;28;20412;-75
2023/03/17 11:51:46;;;;;;;3.47;2.60;;;16.20;93.30;;;;;;5029304;28;20413;-75
2023/03/17 11:54:37;;;;;;;3.40;2.77;;;16.30;93.70;;;;;;5030191;28;20433;-75
2023/03/17 11:57:10;;;;;;;3.97;2.40;;;16.30;93.10;;;;;;5030278;28;20828;-75
2023/03/17 11:59:51;;;;;;;3.03;2.17;;;16.30;92.80;;;;;;5029967;28;20958;-75
2023/03/17 12:02:30;;;;;;;4.20;2.47;;;16.30;92.00;;;;;;5030316;28;20427;-75
2023/03/17 12:05:05;;;;;;;3.17;2.43;;;16.30;92.80;;;;;;5029929;28;20452;-75
2023/03/17 12:07:33;;;;;;;4.13;2.10;;;16.30;92.60;;;;;;5045430;28;20416;-75
2023/03/17 12:10:15;;;;;;;2.37;2.17;;;16.40;92.40;;;;;;5029810;28;20496;-75
2023/03/17 12:12:46;;;;;;;5.97;2.93;;;16.30;93.00;;;;;;5028556;28;20491;-75
2023/03/17 12:15:19;;;;;;;4.23;2.70;;;16.40;92.30;;;;;;5029713;28;20429;-75
2023/03/17 12:17:58;;;;;;;4.10;2.80;;;16.30;92.60;;;;;;5029896;28;20459;-75
2023/03/17 12:20:39;;;;;;;4.30;2.40;;;16.30;92.60;;;;;;5029747;28;20457;-75
2023/03/17 12:23:35;;;;;;;3.03;2.03;;;16.30;92.60;;;;;;5028991;28;20437;-75
2023/03/17 12:26:07;;;;;;;2.97;2.37;;;16.30;93.20;;;;;;5029871;28;20413;-75
2023/03/17 12:29:14;;;;;;;3.20;2.20;;;16.30;93.00;;;;;;5028450;28;20934;-75
2023/03/17 12:31:51;;;;;;;2.97;2.70;;;16.30;92.50;;;;;;5007031;28;20495;-75
2023/03/17 12:34:27;;;;;;;7.43;2.60;;;16.30;92.80;;;;;;5007020;28;20966;-75
2023/03/17 12:36:53;;;;;;;3.90;2.30;;;16.30;92.70;;;;;;5021013;28;20421;-75
2023/03/17 12:39:27;;;;;;;6.17;3.23;;;16.30;93.10;;;;;;5043132;28;20470;-76
2023/03/17 12:42:41;;;;;;;6.17;2.23;;;16.20;93.10;;;;;;5049565;28;20659;-76
2023/03/17 12:45:29;;;;;;;5.10;2.50;;;16.20;93.00;;;;;;5047502;28;20409;-76
2023/03/17 12:48:00;;;;;;;4.17;2.20;;;16.20;93.40;;;;;;5049100;28;20411;-76
2023/03/17 12:50:45;;;;;;;4.37;2.10;;;16.20;93.40;;;;;;5064567;28;20450;-76
2023/03/17 12:53:14;;;;;;;3.27;2.20;;;16.10;93.90;;;;;;5048896;28;20428;-76
2023/03/17 12:55:44;;;;;;;3.47;2.00;;;16.20;94.00;;;;;;5049181;28;20416;-76
2023/03/17 12:58:36;;;;;;;6.03;2.00;;;16.20;93.70;;;;;;5047619;28;20455;-76
2023/03/17 13:01:02;;;;;;;2.50;2.30;;;16.20;93.90;;;;;;5048771;28;20419;-76
2023/03/17 13:03:32;;;;;;;3.23;2.27;;;16.30;93.80;;;;;;5048755;28;20424;-76
2023/03/17 13:06:01;;;;;;;2.90;2.20;;;16.30;92.90;;;;;;5064379;28;20454;-75